Time;durP1;ratioP1;P1;durP2;ratioP2;P2;SDS_P1;SDS_P2;PMS_P1;PMS_P2;Temp;Humidity;BMP_temperature;BMP_pressure;BME280_temperature;BME280_humidity;BME280_pressure;Samples;Min_cycle;Max_cycle;Signal;HPM_P1;HPM_P2
2022/09/17 00:01:27;;;;;;;18.40;3.83;;;;;;;;;;2333498;57;21062;-76
2022/09/17 00:03:55;;;;;;;18.20;3.33;;;;;;;;;;2401618;53;21180;-77
2022/09/17 00:06:23;;;;;;;18.52;4.30;;;;;;;;;;2333037;57;21588;-76
2022/09/17 00:08:50;;;;;;;19.45;3.50;;;;;;;;;;2333581;57;21058;-77
2022/09/17 00:11:20;;;;;;;23.40;4.62;;;;;;;;;;2333364;57;21057;-75
2022/09/17 00:13:47;;;;;;;25.00;3.72;;;;;;;;;;2333661;57;21050;-76
2022/09/17 00:16:21;;;;;;;22.50;4.35;;;;;;;;;;2333107;57;21596;-76
2022/09/17 00:18:48;;;;;;;33.08;4.57;;;;;;;;;;2333625;57;21632;-75
2022/09/17 00:21:16;;;;;;;24.37;4.28;;;;;;;;;;2333507;57;21121;-76
2022/09/17 00:23:44;;;;;;;21.35;3.62;;;;;;;;;;2333112;57;21565;-75
2022/09/17 00:26:11;;;;;;;24.67;4.18;;;;;;;;;;2333468;53;21070;-75
2022/09/17 00:28:38;;;;;;;20.98;4.12;;;;;;;;;;2333284;57;21065;-77
2022/09/17 00:31:08;;;;;;;30.30;5.22;;;;;;;;;;2333789;57;21097;-76
2022/09/17 00:33:35;;;;;;;17.92;4.60;;;;;;;;;;2333147;57;21129;-75
2022/09/17 00:36:03;;;;;;;16.42;3.67;;;;;;;;;;2405422;53;21715;-76
2022/09/17 00:38:30;;;;;;;23.92;4.20;;;;;;;;;;2333626;57;21120;-77
2022/09/17 00:40:57;;;;;;;23.92;3.20;;;;;;;;;;2338286;53;21126;-76
2022/09/17 00:43:38;;;;;;;20.23;3.62;;;;;;;;;;2333142;57;21054;-76
2022/09/17 00:46:07;;;;;;;24.98;4.32;;;;;;;;;;2372472;53;21050;-77
2022/09/17 00:48:34;;;;;;;30.12;4.00;;;;;;;;;;2333703;57;21050;-76
2022/09/17 00:51:01;;;;;;;24.87;4.07;;;;;;;;;;2333602;57;21065;-75
2022/09/17 00:53:29;;;;;;;30.30;5.22;;;;;;;;;;2333759;57;21082;-75
2022/09/17 00:55:59;;;;;;;25.45;3.80;;;;;;;;;;2395497;53;21141;-76
2022/09/17 00:58:26;;;;;;;24.35;4.93;;;;;;;;;;2333954;57;21556;-76
2022/09/17 01:00:53;;;;;;;15.85;4.28;;;;;;;;;;2333128;57;21118;-76
2022/09/17 01:03:21;;;;;;;20.60;3.37;;;;;;;;;;2337427;53;21073;-74
2022/09/17 01:05:49;;;;;;;28.30;4.57;;;;;;;;;;2349898;53;21121;-77
2022/09/17 01:08:20;;;;;;;23.02;4.57;;;;;;;;;;2333337;57;21125;-76
2022/09/17 01:11:12;;;;;;;24.95;4.22;;;;;;;;;;2334288;57;21090;-76
2022/09/17 01:13:46;;;;;;;20.80;3.35;;;;;;;;;;2333410;57;21214;-76
2022/09/17 01:16:18;;;;;;;18.83;2.97;;;;;;;;;;2333134;57;21532;-77
2022/09/17 01:18:49;;;;;;;20.80;3.75;;;;;;;;;;2334127;57;21066;-77
2022/09/17 01:21:38;;;;;;;14.77;3.53;;;;;;;;;;2334281;57;21113;-76
2022/09/17 01:24:21;;;;;;;20.35;3.80;;;;;;;;;;2333828;57;21069;-75
2022/09/17 01:27:00;;;;;;;23.12;3.95;;;;;;;;;;2333053;57;21050;-77
2022/09/17 01:29:34;;;;;;;23.70;4.12;;;;;;;;;;2333910;57;21066;-77
2022/09/17 01:32:05;;;;;;;30.23;4.95;;;;;;;;;;2378634;55;21107;-76
2022/09/17 01:34:38;;;;;;;19.23;3.90;;;;;;;;;;2492434;55;21535;-76
2022/09/17 01:37:13;;;;;;;27.15;3.33;;;;;;;;;;2267535;59;21061;-75
2022/09/17 01:39:44;;;;;;;20.25;3.40;;;;;;;;;;2268101;59;21081;-76
2022/09/17 01:42:17;;;;;;;26.05;3.60;;;;;;;;;;2267921;59;21085;-76
2022/09/17 01:44:43;;;;;;;;;;;;;;;;;;2501755;55;21069;-76
2022/09/17 01:47:13;;;;;;;24.55;3.67;;;;;;;;;;2267441;59;20088;-76
2022/09/17 01:49:40;;;;;;;18.05;3.60;;;;;;;;;;2268027;59;21172;-77
2022/09/17 01:52:08;;;;;;;21.58;3.75;;;;;;;;;;2497845;55;21112;-76
2022/09/17 01:54:37;;;;;;;18.12;3.40;;;;;;;;;;2267784;59;21204;-76
2022/09/17 01:57:08;;;;;;;15.43;3.40;;;;;;;;;;2497333;55;21527;-76
2022/09/17 01:59:38;;;;;;;19.42;3.42;;;;;;;;;;2267916;59;21065;-73
2022/09/17 02:02:07;;;;;;;15.43;4.55;;;;;;;;;;2268005;59;21547;-72
2022/09/17 02:04:37;;;;;;;22.37;4.28;;;;;;;;;;2267892;59;21097;-76
2022/09/17 02:07:06;;;;;;;22.55;4.12;;;;;;;;;;2497460;55;21038;-75
2022/09/17 02:09:35;;;;;;;23.27;3.97;;;;;;;;;;2267890;59;21551;-76
2022/09/17 02:12:06;;;;;;;26.95;4.78;;;;;;;;;;2267911;59;21602;-76
2022/09/17 02:14:35;;;;;;;17.52;3.42;;;;;;;;;;2267856;59;21136;-73
2022/09/17 02:17:06;;;;;;;20.40;3.50;;;;;;;;;;2267265;59;21563;-76
2022/09/17 02:19:36;;;;;;;28.20;3.40;;;;;;;;;;2267681;59;21614;-76
2022/09/17 02:22:06;;;;;;;15.40;3.35;;;;;;;;;;2267949;59;21584;-76
2022/09/17 02:24:37;;;;;;;19.25;3.67;;;;;;;;;;2267652;59;21543;-76
2022/09/17 02:27:07;;;;;;;18.77;3.30;;;;;;;;;;2267620;59;21061;-76
2022/09/17 02:29:36;;;;;;;22.13;4.60;;;;;;;;;;2267671;59;21041;-77
2022/09/17 02:32:04;;;;;;;19.85;3.92;;;;;;;;;;2497898;55;21596;-76
2022/09/17 02:34:31;;;;;;;17.12;2.72;;;;;;;;;;2497700;55;21657;-74
2022/09/17 02:36:58;;;;;;;16.25;2.58;;;;;;;;;;2497555;55;21192;-77
2022/09/17 02:39:25;;;;;;;15.15;3.22;;;;;;;;;;2267779;59;21117;-74
2022/09/17 02:41:58;;;;;;;16.70;3.28;;;;;;;;;;2268051;59;21045;-76
2022/09/17 02:44:29;;;;;;;27.45;4.85;;;;;;;;;;2267817;59;21585;-76
2022/09/17 02:47:10;;;;;;;17.37;3.37;;;;;;;;;;2267344;59;21141;-73
2022/09/17 02:49:45;;;;;;;17.58;3.05;;;;;;;;;;2499097;55;21165;-78
2022/09/17 02:52:16;;;;;;;16.85;4.25;;;;;;;;;;2497995;55;21395;-77
2022/09/17 02:54:47;;;;;;;21.80;3.28;;;;;;;;;;2267644;59;21108;-76
2022/09/17 02:57:18;;;;;;;19.15;3.10;;;;;;;;;;2267431;59;21128;-77
2022/09/17 02:59:50;;;;;;;17.15;3.00;;;;;;;;;;2268955;59;21060;-77
2022/09/17 03:02:19;;;;;;;14.40;2.70;;;;;;;;;;2269473;59;21556;-78
2022/09/17 03:04:47;;;;;;;19.58;3.53;;;;;;;;;;2269076;59;21057;-75
2022/09/17 03:07:16;;;;;;;17.10;3.00;;;;;;;;;;2498655;55;21650;-78
2022/09/17 03:09:43;;;;;;;15.00;3.17;;;;;;;;;;2268842;59;21670;-75
2022/09/17 03:12:11;;;;;;;20.80;3.70;;;;;;;;;;2269235;59;21075;-78
2022/09/17 03:14:38;;;;;;;13.80;2.85;;;;;;;;;;2498704;55;21693;-75
2022/09/17 03:17:05;;;;;;;27.65;2.72;;;;;;;;;;2498653;55;21057;-79
2022/09/17 03:19:32;;;;;;;17.52;3.37;;;;;;;;;;2268810;59;21069;-79
2022/09/17 03:21:59;;;;;;;13.57;3.10;;;;;;;;;;2498907;55;21059;-78
2022/09/17 03:24:26;;;;;;;15.52;3.42;;;;;;;;;;2499072;55;21057;-79
2022/09/17 03:26:53;;;;;;;12.18;2.78;;;;;;;;;;2267695;59;21611;-75
2022/09/17 03:29:20;;;;;;;20.00;3.42;;;;;;;;;;2267794;59;21157;-76
2022/09/17 03:31:47;;;;;;;18.95;3.17;;;;;;;;;;2267786;59;21655;-73
2022/09/17 03:34:14;;;;;;;19.77;3.17;;;;;;;;;;2267712;59;21069;-76
2022/09/17 03:36:41;;;;;;;23.30;3.67;;;;;;;;;;2497240;55;21548;-76
2022/09/17 03:39:08;;;;;;;19.02;3.72;;;;;;;;;;2497712;55;21069;-76
2022/09/17 03:41:35;;;;;;;17.73;3.12;;;;;;;;;;2267755;59;21057;-76
2022/09/17 03:44:05;;;;;;;17.60;2.80;;;;;;;;;;2267849;59;21176;-76
2022/09/17 03:46:32;;;;;;;14.18;3.62;;;;;;;;;;2267244;59;21069;-76
2022/09/17 03:48:59;;;;;;;22.62;3.20;;;;;;;;;;2497803;55;21105;-76
2022/09/17 03:51:26;;;;;;;19.25;3.33;;;;;;;;;;2267879;59;21065;-75
2022/09/17 03:53:53;;;;;;;18.90;3.30;;;;;;;;;;2267761;59;21100;-76
2022/09/17 03:56:20;;;;;;;17.60;3.70;;;;;;;;;;2267168;59;21153;-76
2022/09/17 03:58:47;;;;;;;17.42;3.15;;;;;;;;;;2497772;55;21061;-76
2022/09/17 04:01:14;;;;;;;15.82;3.60;;;;;;;;;;2267951;59;21054;-76
2022/09/17 04:03:41;;;;;;;22.70;3.35;;;;;;;;;;2268044;59;21076;-76
2022/09/17 04:06:08;;;;;;;26.42;3.87;;;;;;;;;;2267634;59;21053;-77
2022/09/17 04:08:35;;;;;;;24.05;3.08;;;;;;;;;;2268077;59;21208;-74
2022/09/17 04:11:02;;;;;;;17.73;3.37;;;;;;;;;;2267998;59;21576;-76
2022/09/17 04:13:29;;;;;;;19.27;4.00;;;;;;;;;;2268010;59;21073;-76
2022/09/17 04:15:56;;;;;;;25.42;3.58;;;;;;;;;;2267329;59;21065;-76
2022/09/17 04:18:23;;;;;;;15.68;2.42;;;;;;;;;;2268142;59;21065;-76
2022/09/17 04:20:51;;;;;;;16.27;2.70;;;;;;;;;;2497881;55;21139;-76
2022/09/17 04:23:18;;;;;;;17.27;3.62;;;;;;;;;;2267937;59;21041;-76
2022/09/17 04:25:45;;;;;;;24.50;3.97;;;;;;;;;;2267273;59;21069;-75
2022/09/17 04:28:12;;;;;;;20.37;3.28;;;;;;;;;;2497918;55;21120;-76
2022/09/17 04:30:40;;;;;;;26.02;3.33;;;;;;;;;;2498066;55;21070;-72
2022/09/17 04:33:07;;;;;;;16.02;2.80;;;;;;;;;;2268001;59;21145;-73
2022/09/17 04:35:34;;;;;;;19.12;3.42;;;;;;;;;;2267543;59;21125;-76
2022/09/17 04:38:01;;;;;;;24.48;3.53;;;;;;;;;;2268168;59;21064;-77
2022/09/17 04:40:28;;;;;;;15.57;3.42;;;;;;;;;;2268104;59;21109;-75
2022/09/17 04:42:56;;;;;;;17.65;3.28;;;;;;;;;;2267685;59;22217;-77
2022/09/17 04:45:23;;;;;;;16.17;3.50;;;;;;;;;;2267287;59;21635;-77
2022/09/17 04:47:50;;;;;;;18.55;3.35;;;;;;;;;;2267852;59;21125;-74
2022/09/17 04:50:18;;;;;;;19.15;3.15;;;;;;;;;;2268050;59;21658;-76
2022/09/17 04:52:45;;;;;;;14.52;2.80;;;;;;;;;;2267938;59;21129;-76
2022/09/17 04:55:12;;;;;;;17.92;3.10;;;;;;;;;;2267781;59;21645;-76
2022/09/17 04:57:39;;;;;;;20.00;4.10;;;;;;;;;;2267694;59;21096;-76
2022/09/17 05:00:07;;;;;;;16.15;3.53;;;;;;;;;;2267929;59;21112;-76
2022/09/17 05:02:34;;;;;;;13.57;2.95;;;;;;;;;;2268013;59;21045;-76
2022/09/17 05:05:01;;;;;;;14.98;2.92;;;;;;;;;;2267861;59;21136;-73
2022/09/17 05:07:28;;;;;;;17.25;3.67;;;;;;;;;;2497391;55;21069;-77
2022/09/17 05:09:55;;;;;;;23.40;3.65;;;;;;;;;;2267978;59;21045;-75
2022/09/17 05:12:22;;;;;;;21.08;3.17;;;;;;;;;;2267921;59;21128;-77
2022/09/17 05:14:49;;;;;;;14.27;2.65;;;;;;;;;;2497777;55;21556;-77
2022/09/17 05:17:16;;;;;;;11.07;2.25;;;;;;;;;;2267477;59;21076;-74
2022/09/17 05:19:43;;;;;;;13.55;2.20;;;;;;;;;;2267882;59;21563;-76
2022/09/17 05:22:10;;;;;;;20.30;3.53;;;;;;;;;;2268098;59;21053;-77
2022/09/17 05:24:38;;;;;;;12.85;2.92;;;;;;;;;;2267786;59;21065;-76
2022/09/17 05:27:05;;;;;;;19.37;4.07;;;;;;;;;;2267361;59;21125;-76
2022/09/17 05:29:33;;;;;;;18.17;3.20;;;;;;;;;;2267964;59;21108;-77
2022/09/17 05:32:00;;;;;;;14.05;2.90;;;;;;;;;;2267835;59;21101;-76
2022/09/17 05:34:27;;;;;;;15.00;2.58;;;;;;;;;;2268012;59;21053;-76
2022/09/17 05:36:53;;;;;;;18.35;3.60;;;;;;;;;;2267485;59;21057;-76
2022/09/17 05:39:24;;;;;;;13.50;2.47;;;;;;;;;;2498012;55;21568;-77
2022/09/17 05:41:51;;;;;;;15.75;2.78;;;;;;;;;;2498175;55;21081;-77
2022/09/17 05:44:18;;;;;;;20.98;3.40;;;;;;;;;;2268049;59;21138;-76
2022/09/17 05:46:45;;;;;;;20.73;3.72;;;;;;;;;;2497402;55;21049;-77
2022/09/17 05:49:13;;;;;;;13.68;3.35;;;;;;;;;;2268119;59;21129;-77
2022/09/17 05:51:40;;;;;;;11.70;2.40;;;;;;;;;;2497955;55;21045;-77
2022/09/17 05:54:07;;;;;;;14.05;3.45;;;;;;;;;;2268057;59;21196;-77
2022/09/17 05:56:34;;;;;;;18.35;3.33;;;;;;;;;;2267561;59;21144;-73
2022/09/17 05:59:02;;;;;;;15.10;3.12;;;;;;;;;;2268049;59;21123;-77
2022/09/17 06:01:29;;;;;;;8.65;2.40;;;;;;;;;;2497979;55;21789;-74
2022/09/17 06:03:57;;;;;;;17.58;2.67;;;;;;;;;;2497862;55;21544;-76
2022/09/17 06:06:28;;;;;;;19.98;3.03;;;;;;;;;;2497539;55;21130;-77
2022/09/17 06:08:55;;;;;;;12.82;2.75;;;;;;;;;;2268205;59;21037;-77
2022/09/17 06:11:22;;;;;;;14.38;2.90;;;;;;;;;;2497937;55;21045;-76
2022/09/17 06:13:52;;;;;;;13.50;2.90;;;;;;;;;;2268073;59;21104;-77
2022/09/17 06:16:20;;;;;;;21.65;2.50;;;;;;;;;;2497385;55;21547;-76
2022/09/17 06:18:48;;;;;;;21.15;2.67;;;;;;;;;;2267825;59;21600;-76
2022/09/17 06:21:16;;;;;;;21.87;4.55;;;;;;;;;;2268055;59;21601;-77
2022/09/17 06:23:43;;;;;;;20.10;3.22;;;;;;;;;;2267948;59;21133;-77
2022/09/17 06:26:11;;;;;;;23.77;3.42;;;;;;;;;;2497364;55;21532;-77
2022/09/17 06:28:38;;;;;;;12.80;2.30;;;;;;;;;;2268046;59;21053;-77
2022/09/17 06:31:06;;;;;;;18.05;3.10;;;;;;;;;;2497979;55;21624;-74
2022/09/17 06:33:35;;;;;;;18.83;2.80;;;;;;;;;;2497686;55;22259;-76
2022/09/17 06:36:03;;;;;;;12.13;2.67;;;;;;;;;;2267400;59;21069;-76
2022/09/17 06:38:31;;;;;;;15.75;2.92;;;;;;;;;;2497811;55;21097;-76
2022/09/17 06:40:58;;;;;;;14.02;2.97;;;;;;;;;;2268216;59;21656;-76
2022/09/17 06:43:25;;;;;;;20.37;3.67;;;;;;;;;;2268069;59;21052;-76
2022/09/17 06:45:52;;;;;;;22.00;2.97;;;;;;;;;;2497207;55;21557;-76
2022/09/17 06:48:20;;;;;;;9.57;2.20;;;;;;;;;;2268110;59;21061;-77
2022/09/17 06:50:47;;;;;;;11.10;2.78;;;;;;;;;;2497883;55;21224;-76
2022/09/17 06:53:14;;;;;;;10.40;2.42;;;;;;;;;;2268181;59;21076;-76
2022/09/17 06:55:41;;;;;;;12.27;2.30;;;;;;;;;;2267475;59;21132;-76
2022/09/17 06:58:08;;;;;;;13.00;3.65;;;;;;;;;;2268017;59;21076;-76
2022/09/17 07:00:35;;;;;;;14.20;2.85;;;;;;;;;;2267793;59;21089;-74
2022/09/17 07:03:02;;;;;;;11.57;2.12;;;;;;;;;;2268165;59;21061;-76
2022/09/17 07:05:31;;;;;;;15.52;2.40;;;;;;;;;;2497139;55;21541;-74
2022/09/17 07:08:01;;;;;;;14.02;1.75;;;;;;;;;;2498133;55;21061;-77
2022/09/17 07:10:28;;;;;;;10.57;2.10;;;;;;;;;;2267891;59;21180;-75
2022/09/17 07:12:55;;;;;;;9.23;2.30;;;;;;;;;;2267923;59;21626;-76
2022/09/17 07:15:22;;;;;;;7.32;1.73;;;;;;;;;;2267451;59;21073;-74
2022/09/17 07:17:49;;;;;;;9.95;2.45;;;;;;;;;;2267979;59;21057;-76
2022/09/17 07:20:16;;;;;;;8.52;1.60;;;;;;;;;;2268229;59;21053;-76
2022/09/17 07:22:43;;;;;;;8.77;1.65;;;;;;;;;;2497989;55;21116;-76
2022/09/17 07:25:10;;;;;;;10.77;1.92;;;;;;;;;;2267929;59;21041;-76
2022/09/17 07:27:37;;;;;;;11.12;2.12;;;;;;;;;;2267581;59;21080;-76
2022/09/17 07:30:05;;;;;;;5.57;1.62;;;;;;;;;;2267958;59;21141;-79
2022/09/17 07:32:32;;;;;;;9.82;2.08;;;;;;;;;;2435842;52;74155;-79
2022/09/17 07:34:59;;;;;;;6.28;1.50;;;;;;;;;;2377574;56;21085;-79
2022/09/17 07:37:26;;;;;;;7.40;2.08;;;;;;;;;;2631567;52;21030;-78
2022/09/17 07:39:53;;;;;;;7.18;1.58;;;;;;;;;;2631914;52;21149;-79
2022/09/17 07:42:20;;;;;;;8.13;1.83;;;;;;;;;;2618259;52;21112;-79
2022/09/17 07:44:47;;;;;;;8.35;1.52;;;;;;;;;;2350066;57;21080;-77
2022/09/17 07:47:14;;;;;;;7.60;1.40;;;;;;;;;;2349877;57;21123;-80
2022/09/17 07:49:41;;;;;;;9.10;1.37;;;;;;;;;;2350399;57;21545;-79
2022/09/17 07:52:08;;;;;;;4.65;0.90;;;;;;;;;;2598196;52;21100;-78
2022/09/17 07:54:36;;;;;;;1.87;0.85;;;;;;;;;;2598235;53;21328;-77
2022/09/17 07:57:03;;;;;;;3.53;1.37;;;;;;;;;;2349734;57;21043;-78
2022/09/17 07:59:30;;;;;;;6.45;1.52;;;;;;;;;;2598036;53;21025;-78
2022/09/17 08:01:57;;;;;;;4.35;1.17;;;;;;;;;;2350037;57;21186;-78
2022/09/17 08:04:23;;;;;;;6.80;1.35;;;;;;;;;;2350211;57;21099;-79
2022/09/17 08:06:50;;;;;;;6.80;1.12;;;;;;;;;;2597499;53;21064;-79
2022/09/17 08:09:17;;;;;;;9.95;1.80;;;;;;;;;;2598291;53;21075;-79
2022/09/17 08:11:44;;;;;;;6.57;1.42;;;;;;;;;;2350087;57;21096;-78
2022/09/17 08:14:12;;;;;;;7.35;1.40;;;;;;;;;;2350256;57;21025;-79
2022/09/17 08:16:39;;;;;;;7.72;1.33;;;;;;;;;;2349648;57;21037;-78
2022/09/17 08:19:09;;;;;;;8.05;1.60;;;;;;;;;;2350088;57;21053;-79
2022/09/17 08:21:36;;;;;;;9.45;1.67;;;;;;;;;;2349961;57;21120;-78
2022/09/17 08:24:03;;;;;;;8.30;1.37;;;;;;;;;;2598096;53;21096;-78
2022/09/17 08:26:31;;;;;;;8.20;1.48;;;;;;;;;;2597676;53;21049;-78
2022/09/17 08:28:58;;;;;;;6.70;1.45;;;;;;;;;;2350246;57;21077;-78
2022/09/17 08:31:27;;;;;;;8.10;1.48;;;;;;;;;;2350126;57;21529;-78
2022/09/17 08:33:54;;;;;;;10.45;1.62;;;;;;;;;;2350174;57;21048;-78
2022/09/17 08:36:23;;;;;;;4.95;1.45;;;;;;;;;;2349574;57;21132;-78
2022/09/17 08:38:52;;;;;;;7.68;1.27;;;;;;;;;;2598154;53;21109;-79
2022/09/17 08:41:27;;;;;;;7.90;1.50;;;;;;;;;;2350668;57;21056;-80
2022/09/17 08:44:01;;;;;;;5.68;1.65;;;;;;;;;;2598858;53;21561;-81
2022/09/17 08:46:32;;;;;;;8.73;2.30;;;;;;;;;;2349879;57;21033;-80
2022/09/17 08:49:02;;;;;;;4.10;1.30;;;;;;;;;;2598663;53;21156;-79
2022/09/17 08:51:35;;;;;;;5.28;1.27;;;;;;;;;;2350610;57;21013;-79
2022/09/17 08:54:07;;;;;;;5.90;1.77;;;;;;;;;;2350925;57;21108;-80
2022/09/17 08:56:36;;;;;;;7.47;1.73;;;;;;;;;;2350208;57;21521;-80
2022/09/17 08:59:17;;;;;;;6.25;1.25;;;;;;;;;;2350455;57;21092;-80
2022/09/17 09:01:49;;;;;;;11.55;2.00;;;;;;;;;;2350482;57;21581;-79
2022/09/17 09:04:27;;;;;;;3.30;1.40;;;;;;;;;;2599196;53;21486;-79
2022/09/17 09:06:55;;;;;;;6.82;1.42;;;;;;;;;;2598472;53;21124;-81
2022/09/17 09:09:25;;;;;;;7.95;1.70;;;;;;;;;;2350561;57;21601;-80
2022/09/17 09:11:55;;;;;;;6.10;1.30;;;;;;;;;;2598545;52;21123;-81
2022/09/17 09:14:24;;;;;;;6.47;1.37;;;;;;;;;;2350710;57;21064;-80
2022/09/17 09:16:52;;;;;;;4.25;1.35;;;;;;;;;;2598129;53;21049;-79
2022/09/17 09:19:23;;;;;;;5.62;1.45;;;;;;;;;;2598601;53;21105;-81
2022/09/17 09:22:03;;;;;;;6.00;1.42;;;;;;;;;;2598612;52;21033;-80
2022/09/17 09:24:34;;;;;;;5.22;1.50;;;;;;;;;;2598854;53;21088;-79
2022/09/17 09:27:04;;;;;;;7.97;1.50;;;;;;;;;;2349719;57;21077;-79
2022/09/17 09:29:36;;;;;;;6.85;1.30;;;;;;;;;;2350165;57;21525;-80
2022/09/17 09:32:11;;;;;;;4.50;1.35;;;;;;;;;;2350408;57;21045;-80
2022/09/17 09:34:38;;;;;;;7.47;1.45;;;;;;;;;;2350348;57;21040;-78
2022/09/17 09:37:11;;;;;;;4.55;1.20;;;;;;;;;;2349989;57;21057;-80
2022/09/17 09:39:40;;;;;;;9.60;1.08;;;;;;;;;;2350470;57;21521;-79
2022/09/17 09:42:11;;;;;;;4.82;1.17;;;;;;;;;;2350371;57;21120;-79
2022/09/17 09:44:38;;;;;;;4.97;0.95;;;;;;;;;;2350468;57;21132;-80
2022/09/17 09:47:16;;;;;;;4.25;0.80;;;;;;;;;;2349800;57;21052;-80
2022/09/17 09:49:52;;;;;;;5.12;0.90;;;;;;;;;;2350357;57;21044;-79
2022/09/17 09:52:23;;;;;;;2.80;0.70;;;;;;;;;;2350113;57;21108;-79
2022/09/17 09:54:59;;;;;;;3.80;0.70;;;;;;;;;;2350355;57;22119;-79
2022/09/17 09:57:34;;;;;;;6.83;0.70;;;;;;;;;;2356127;53;21088;-79
2022/09/17 10:00:21;;;;;;;1.60;0.82;;;;;;;;;;2350635;57;21033;-79
2022/09/17 10:02:49;;;;;;;2.83;0.68;;;;;;;;;;2350376;57;21056;-79
2022/09/17 10:05:16;;;;;;;6.03;0.85;;;;;;;;;;2350201;57;21057;-79
2022/09/17 10:07:43;;;;;;;1.92;0.90;;;;;;;;;;2598391;53;21131;-80
2022/09/17 10:10:11;;;;;;;1.87;0.85;;;;;;;;;;2350784;57;21159;-80
2022/09/17 10:12:38;;;;;;;1.30;0.77;;;;;;;;;;2598263;52;21041;-79
2022/09/17 10:15:22;;;;;;;1.55;0.73;;;;;;;;;;2350517;57;21068;-80
2022/09/17 10:17:49;;;;;;;2.78;1.00;;;;;;;;;;2350393;57;21560;-78
2022/09/17 10:20:17;;;;;;;2.92;0.60;;;;;;;;;;2598544;53;21047;-81
2022/09/17 10:22:45;;;;;;;2.80;1.20;;;;;;;;;;2350566;57;21017;-80
2022/09/17 10:25:31;;;;;;;4.57;1.10;;;;;;;;;;2350313;57;21065;-79
2022/09/17 10:27:59;;;;;;;4.00;0.98;;;;;;;;;;2350667;57;21025;-79
2022/09/17 10:30:26;;;;;;;1.50;0.60;;;;;;;;;;2350565;57;21045;-79
2022/09/17 10:33:10;;;;;;;3.37;0.95;;;;;;;;;;2598467;52;21124;-80
2022/09/17 10:35:36;;;;;;;;;;;;;;;;;;2353780;57;21308;-78
2022/09/17 10:38:03;;;;;;;2.55;1.12;;;;;;;;;;2350467;57;20090;-79
2022/09/17 10:40:31;;;;;;;2.92;0.70;;;;;;;;;;2598358;53;21053;-79
2022/09/17 10:43:18;;;;;;;1.60;0.75;;;;;;;;;;2350232;57;21048;-79
2022/09/17 10:45:55;;;;;;;3.72;0.98;;;;;;;;;;2349987;57;21648;-78
2022/09/17 10:48:22;;;;;;;4.57;1.58;;;;;;;;;;2350339;57;21041;-79
2022/09/17 10:50:50;;;;;;;4.35;0.90;;;;;;;;;;2350429;57;21100;-80
2022/09/17 10:53:18;;;;;;;2.97;0.80;;;;;;;;;;2350313;57;21052;-79
2022/09/17 10:55:46;;;;;;;3.35;0.80;;;;;;;;;;2349839;57;21057;-80
2022/09/17 10:58:22;;;;;;;2.70;0.73;;;;;;;;;;2350467;57;21116;-79
2022/09/17 11:00:56;;;;;;;9.82;2.65;;;;;;;;;;2350449;57;21053;-80
2022/09/17 11:03:31;;;;;;;3.97;0.80;;;;;;;;;;2350425;57;21152;-79
2022/09/17 11:06:07;;;;;;;4.87;1.30;;;;;;;;;;2597902;53;21088;-79
2022/09/17 11:08:37;;;;;;;6.25;1.67;;;;;;;;;;2350404;57;21569;-79
2022/09/17 11:11:07;;;;;;;5.97;1.65;;;;;;;;;;2350316;57;21131;-80
2022/09/17 11:13:39;;;;;;;8.40;1.58;;;;;;;;;;2597998;52;21676;-79
2022/09/17 11:16:11;;;;;;;6.85;1.23;;;;;;;;;;2349929;57;21036;-80
2022/09/17 11:18:40;;;;;;;4.75;1.15;;;;;;;;;;2598242;53;21128;-79
2022/09/17 11:21:15;;;;;;;5.30;1.15;;;;;;;;;;2598009;53;21152;-80
2022/09/17 11:24:02;;;;;;;3.22;1.00;;;;;;;;;;2350168;57;21175;-81
2022/09/17 11:26:32;;;;;;;4.65;1.05;;;;;;;;;;2349551;57;21033;-79
2022/09/17 11:29:03;;;;;;;4.97;1.35;;;;;;;;;;2597874;53;21048;-79
2022/09/17 11:31:36;;;;;;;5.12;1.40;;;;;;;;;;2350232;57;21120;-79
2022/09/17 11:34:13;;;;;;;6.78;1.00;;;;;;;;;;2350288;57;21557;-80
2022/09/17 11:36:45;;;;;;;2.37;0.80;;;;;;;;;;2597602;53;21029;-78
2022/09/17 11:39:14;;;;;;;1.42;0.50;;;;;;;;;;2350305;57;21044;-78
2022/09/17 11:41:42;;;;;;;7.65;1.15;;;;;;;;;;2350047;57;21112;-79
2022/09/17 11:44:13;;;;;;;2.95;0.88;;;;;;;;;;2350285;57;21100;-79
2022/09/17 11:46:42;;;;;;;4.72;1.10;;;;;;;;;;2349863;57;21307;-79
2022/09/17 11:49:13;;;;;;;4.57;1.05;;;;;;;;;;2350175;57;21072;-79
2022/09/17 11:51:43;;;;;;;3.58;0.80;;;;;;;;;;2350090;57;21056;-80
2022/09/17 11:54:16;;;;;;;3.78;0.73;;;;;;;;;;2349988;57;21048;-80
2022/09/17 11:56:45;;;;;;;3.03;0.93;;;;;;;;;;2349952;57;21045;-79
2022/09/17 11:59:14;;;;;;;3.70;1.08;;;;;;;;;;2598095;53;21029;-79
2022/09/17 12:01:45;;;;;;;4.78;1.10;;;;;;;;;;2350165;57;21029;-78
2022/09/17 12:04:23;;;;;;;4.03;1.25;;;;;;;;;;2350247;57;21096;-79
2022/09/17 12:06:54;;;;;;;2.75;1.30;;;;;;;;;;2597455;53;21033;-79
2022/09/17 12:09:22;;;;;;;4.15;1.20;;;;;;;;;;2350286;57;21037;-79
2022/09/17 12:11:52;;;;;;;4.18;1.23;;;;;;;;;;2598001;52;21025;-80
2022/09/17 12:14:22;;;;;;;4.00;1.00;;;;;;;;;;2350174;57;21063;-79
2022/09/17 12:16:50;;;;;;;3.83;0.77;;;;;;;;;;2349724;57;21033;-79
2022/09/17 12:19:22;;;;;;;2.97;1.12;;;;;;;;;;2350025;57;21116;-79
2022/09/17 12:21:51;;;;;;;5.53;1.25;;;;;;;;;;2350281;57;21016;-79
2022/09/17 12:24:21;;;;;;;3.37;0.95;;;;;;;;;;2598195;53;21057;-79
2022/09/17 12:27:11;;;;;;;4.47;1.10;;;;;;;;;;2349785;57;21053;-79
2022/09/17 12:29:48;;;;;;;6.25;1.33;;;;;;;;;;2350339;57;21041;-79
2022/09/17 12:32:24;;;;;;;4.85;1.08;;;;;;;;;;2350240;57;21036;-79
2022/09/17 12:34:55;;;;;;;4.07;1.02;;;;;;;;;;2597968;52;21117;-80
2022/09/17 12:37:25;;;;;;;7.05;1.50;;;;;;;;;;2349723;57;21048;-79
2022/09/17 12:40:03;;;;;;;4.53;1.00;;;;;;;;;;2598173;53;21032;-79
2022/09/17 12:42:38;;;;;;;3.72;1.20;;;;;;;;;;2350359;57;21159;-80
2022/09/17 12:45:20;;;;;;;5.55;1.08;;;;;;;;;;2350404;57;21053;-79
2022/09/17 12:47:58;;;;;;;4.95;1.42;;;;;;;;;;2598150;53;21036;-80
2022/09/17 12:50:29;;;;;;;3.00;0.93;;;;;;;;;;2350083;57;21045;-80
2022/09/17 12:53:13;;;;;;;3.10;0.90;;;;;;;;;;2598024;52;21100;-79
2022/09/17 12:55:43;;;;;;;4.10;1.00;;;;;;;;;;2350086;57;21120;-79
2022/09/17 12:58:18;;;;;;;5.65;1.58;;;;;;;;;;2597941;53;21585;-80
2022/09/17 13:00:48;;;;;;;3.95;1.33;;;;;;;;;;2350269;57;21041;-80
2022/09/17 13:03:20;;;;;;;4.78;0.93;;;;;;;;;;2598072;52;21120;-80
2022/09/17 13:06:09;;;;;;;3.92;1.20;;;;;;;;;;2349970;57;21037;-79
2022/09/17 13:08:53;;;;;;;2.40;0.95;;;;;;;;;;2334537;57;21041;-79
2022/09/17 13:11:39;;;;;;;3.83;1.12;;;;;;;;;;2350065;57;21144;-79
2022/09/17 13:14:16;;;;;;;2.87;1.15;;;;;;;;;;2350295;57;21541;-79
2022/09/17 13:16:45;;;;;;;6.15;1.52;;;;;;;;;;2597724;53;21048;-79
2022/09/17 13:19:17;;;;;;;3.55;1.25;;;;;;;;;;2350306;57;21131;-80
2022/09/17 13:21:49;;;;;;;7.30;1.50;;;;;;;;;;2598130;52;21108;-79
2022/09/17 13:24:16;;;;;;;5.93;1.62;;;;;;;;;;2350186;57;21045;-79
2022/09/17 13:26:44;;;;;;;4.28;1.12;;;;;;;;;;2349994;57;21088;-79
2022/09/17 13:29:12;;;;;;;5.65;1.23;;;;;;;;;;2350310;57;21104;-79
2022/09/17 13:31:49;;;;;;;4.90;1.20;;;;;;;;;;2598349;52;21036;-79
2022/09/17 13:34:30;;;;;;;8.80;1.52;;;;;;;;;;2523034;53;71828;-76
2022/09/17 13:36:57;;;;;;;4.93;1.75;;;;;;;;;;2334417;57;21654;-73
2022/09/17 13:39:39;;;;;;;3.33;1.10;;;;;;;;;;2579625;53;21654;-76
2022/09/17 13:42:08;;;;;;;5.18;1.50;;;;;;;;;;2335158;57;21036;-76
2022/09/17 13:44:37;;;;;;;4.87;1.23;;;;;;;;;;2335085;57;22112;-76
2022/09/17 13:47:32;;;;;;;5.82;1.60;;;;;;;;;;2334488;57;21042;-77
2022/09/17 13:50:01;;;;;;;6.68;1.45;;;;;;;;;;2316841;57;21014;-76
2022/09/17 13:52:31;;;;;;;4.72;1.92;;;;;;;;;;2334853;57;21195;-76
2022/09/17 13:54:58;;;;;;;4.78;1.20;;;;;;;;;;2334950;57;21030;-77
2022/09/17 13:57:26;;;;;;;6.87;1.55;;;;;;;;;;2334441;57;21094;-76
2022/09/17 13:59:57;;;;;;;6.05;1.52;;;;;;;;;;2335247;57;21184;-76
2022/09/17 14:02:29;;;;;;;9.15;1.87;;;;;;;;;;2335218;57;21098;-76
2022/09/17 14:04:56;;;;;;;4.78;0.80;;;;;;;;;;2335037;57;21018;-77
2022/09/17 14:07:35;;;;;;;3.20;0.90;;;;;;;;;;2334442;57;21090;-76
2022/09/17 14:10:25;;;;;;;7.95;1.65;;;;;;;;;;2579552;53;21601;-76
2022/09/17 14:12:54;;;;;;;3.58;1.20;;;;;;;;;;2335046;57;21101;-76
2022/09/17 14:15:40;;;;;;;2.92;0.40;;;;;;;;;;2334606;57;21022;-74
2022/09/17 14:18:25;;;;;;;3.03;0.75;;;;;;;;;;2334839;57;21114;-76
2022/09/17 14:20:54;;;;;;;2.17;1.00;;;;;;;;;;2579498;53;21042;-74
2022/09/17 14:23:21;;;;;;;3.83;0.90;;;;;;;;;;2579403;53;21165;-75
2022/09/17 14:25:51;;;;;;;5.05;0.80;;;;;;;;;;2334432;57;21694;-73
2022/09/17 14:28:25;;;;;;;2.22;0.70;;;;;;;;;;2334935;57;21038;-76
2022/09/17 14:30:52;;;;;;;2.10;0.80;;;;;;;;;;2335027;57;21042;-75
2022/09/17 14:33:21;;;;;;;1.83;0.80;;;;;;;;;;2334869;57;21101;-75
2022/09/17 14:35:50;;;;;;;3.20;0.62;;;;;;;;;;2578908;53;21037;-76
2022/09/17 14:38:20;;;;;;;2.92;0.70;;;;;;;;;;2334890;57;21548;-75
2022/09/17 14:40:48;;;;;;;2.90;0.50;;;;;;;;;;2335044;57;21114;-76
2022/09/17 14:43:18;;;;;;;3.33;0.77;;;;;;;;;;2334781;57;21057;-76
2022/09/17 14:45:48;;;;;;;3.45;0.80;;;;;;;;;;2578861;53;21565;-76
2022/09/17 14:48:28;;;;;;;1.92;0.80;;;;;;;;;;2335018;57;21180;-76
2022/09/17 14:51:11;;;;;;;2.60;0.93;;;;;;;;;;2334839;57;21533;-76
2022/09/17 14:53:38;;;;;;;2.90;1.10;;;;;;;;;;2335157;57;21038;-74
2022/09/17 14:56:05;;;;;;;2.58;0.90;;;;;;;;;;2334534;57;21026;-76